Аэропорт
Ставрополь (URMT)

 URMT / STW
ЗЦ Ростов-на-Дону
Ростов-на-Дону (URRV)
Ростов-на-Дону (URRV)
 45.10920, 42.11280  / 1486 ft

 URMT 140200Z 1403/1412 27004G09MPS 9999 SCT020 TEMPO 1403/1409 3100 BR BKN011
показать схемы

Аэропорт Ставрополь

 

 

Международный аэропорт Шпаковское Ставрополь представляет собой авиатранспортный узел федерального значения и располагается в окрестностях регионального центра Ставропольского края. Несмотря на то, что аэропорт имеет в своём составе всего лишь одну взлётно-посадочную полосу, протяжённость которой составляет 2600 метров, а ширина 48 метров, ежедневно аэропорт обслуживает десятки авиарейсов, преимущественно чартерных, выполняемых на бизнес-джетах. В ближайших перспективах планируется увеличение длины ВПП до 3000 метров.

Аэропорт «Ставрополь» имеет допуски на приём следующих типов самолётов: Airbus A319, Airbus A320, Airbus A321, BAe 146, Boeing 737, Boeing 757, Bombardier CRJ 100/200, SAAB-2000, Sukhoi Superjet 100, Ан-12, Ан-24, Ан-148, Ил-14, Ил-18, Ил-76, Ту-134, Ту-154, Ту-204, Ту-214, Як-40, Як-42 и более лёгких, а также вертолётов всех типов.

 



2018 © VATRUS division